sensor_id;sensor_type;location;lat;lon;timestamp;pressure;altitude;pressure_sealevel;temperature;humidity
63691;BME280;49837;57.280;27.070;2023-08-01T00:00:55;99384.81;;;14.0;100.0
63691;BME280;49837;57.280;27.070;2023-08-01T00:01:55;99381.75;;;14.03;100.0
63691;BME280;49837;57.280;27.070;2023-08-01T00:02:56;99378.11;;;13.99;100.0
63691;BME280;49837;57.280;27.070;2023-08-01T00:03:56;99375.48;;;13.99;100.0
63691;BME280;49837;57.280;27.070;2023-08-01T00:04:56;99377.17;;;14.02;100.0
63691;BME280;49837;57.280;27.070;2023-08-01T00:05:58;99376.44;;;14.03;100.0
63691;BME280;49837;57.280;27.070;2023-08-01T00:06:57;99377.34;;;14.01;100.0
63691;BME280;49837;57.280;27.070;2023-08-01T00:07:58;99378.33;;;13.98;100.0
63691;BME280;49837;57.280;27.070;2023-08-01T00:08:58;99380.8;;;13.96;100.0
63691;BME280;49837;57.280;27.070;2023-08-01T00:09:59;99382.82;;;13.95;100.0
63691;BME280;49837;57.280;27.070;2023-08-01T00:10:59;99382.32;;;13.92;100.0
63691;BME280;49837;57.280;27.070;2023-08-01T00:11:59;99380.02;;;13.93;100.0
63691;BME280;49837;57.280;27.070;2023-08-01T00:13:00;99377.6;;;13.94;100.0
63691;BME280;49837;57.280;27.070;2023-08-01T00:14:00;99380.19;;;13.93;100.0
63691;BME280;49837;57.280;27.070;2023-08-01T00:15:01;99380.53;;;13.94;100.0
63691;BME280;49837;57.280;27.070;2023-08-01T00:16:01;99380.59;;;13.93;100.0
63691;BME280;49837;57.280;27.070;2023-08-01T00:17:05;99381.52;;;13.98;100.0
63691;BME280;49837;57.280;27.070;2023-08-01T00:18:05;99381.52;;;13.95;100.0
63691;BME280;49837;57.280;27.070;2023-08-01T00:19:06;99385.42;;;13.99;100.0
63691;BME280;49837;57.280;27.070;2023-08-01T00:20:07;99383.91;;;13.96;100.0
63691;BME280;49837;57.280;27.070;2023-08-01T00:21:07;99379.89;;;13.99;100.0
63691;BME280;49837;57.280;27.070;2023-08-01T00:22:07;99380.86;;;13.97;100.0
63691;BME280;49837;57.280;27.070;2023-08-01T00:23:07;99378.33;;;13.94;100.0
63691;BME280;49837;57.280;27.070;2023-08-01T00:24:08;99379.0;;;13.97;100.0
63691;BME280;49837;57.280;27.070;2023-08-01T00:25:09;99376.31;;;14.0;100.0
63691;BME280;49837;57.280;27.070;2023-08-01T00:26:09;99380.12;;;13.99;100.0
63691;BME280;49837;57.280;27.070;2023-08-01T00:27:09;99379.35;;;13.97;100.0
63691;BME280;49837;57.280;27.070;2023-08-01T00:28:10;99376.89;;;13.95;100.0
63691;BME280;49837;57.280;27.070;2023-08-01T00:29:11;99380.02;;;13.95;100.0
63691;BME280;49837;57.280;27.070;2023-08-01T00:30:11;99377.05;;;13.98;100.0
63691;BME280;49837;57.280;27.070;2023-08-01T00:31:11;99376.77;;;13.99;100.0
63691;BME280;49837;57.280;27.070;2023-08-01T00:32:11;99370.41;;;14.02;100.0
63691;BME280;49837;57.280;27.070;2023-08-01T00:33:13;99366.5;;;14.0;100.0
63691;BME280;49837;57.280;27.070;2023-08-01T00:34:13;99372.24;;;14.0;100.0
63691;BME280;49837;57.280;27.070;2023-08-01T00:35:13;99369.5;;;14.01;100.0
63691;BME280;49837;57.280;27.070;2023-08-01T00:36:14;99368.43;;;14.04;100.0
63691;BME280;49837;57.280;27.070;2023-08-01T00:37:14;99366.77;;;14.05;100.0
63691;BME280;49837;57.280;27.070;2023-08-01T00:38:15;99370.84;;;14.06;100.0
63691;BME280;49837;57.280;27.070;2023-08-01T00:39:15;99372.84;;;14.06;100.0
63691;BME280;49837;57.280;27.070;2023-08-01T00:40:16;99372.69;;;14.07;100.0
63691;BME280;49837;57.280;27.070;2023-08-01T00:41:16;99373.08;;;14.03;100.0
63691;BME280;49837;57.280;27.070;2023-08-01T00:42:17;99373.12;;;14.01;100.0
63691;BME280;49837;57.280;27.070;2023-08-01T00:43:17;99373.46;;;14.0;100.0
63691;BME280;49837;57.280;27.070;2023-08-01T00:44:17;99371.23;;;14.03;100.0
63691;BME280;49837;57.280;27.070;2023-08-01T00:45:18;99374.08;;;14.03;100.0
63691;BME280;49837;57.280;27.070;2023-08-01T00:46:18;99376.44;;;14.05;100.0
63691;BME280;49837;57.280;27.070;2023-08-01T00:47:19;99375.58;;;14.05;100.0
63691;BME280;49837;57.280;27.070;2023-08-01T00:48:19;99373.77;;;14.03;100.0
63691;BME280;49837;57.280;27.070;2023-08-01T00:49:20;99375.48;;;14.04;100.0
63691;BME280;49837;57.280;27.070;2023-08-01T00:50:20;99376.84;;;14.02;100.0
63691;BME280;49837;57.280;27.070;2023-08-01T00:51:21;99372.41;;;14.02;100.0
63691;BME280;49837;57.280;27.070;2023-08-01T00:52:21;99373.08;;;14.06;100.0
63691;BME280;49837;57.280;27.070;2023-08-01T00:53:22;99372.29;;;14.1;100.0
63691;BME280;49837;57.280;27.070;2023-08-01T00:54:22;99368.49;;;14.1;100.0
63691;BME280;49837;57.280;27.070;2023-08-01T00:55:22;99369.04;;;14.1;100.0
63691;BME280;49837;57.280;27.070;2023-08-01T00:56:23;99367.49;;;14.07;100.0
63691;BME280;49837;57.280;27.070;2023-08-01T00:57:23;99363.4;;;14.1;100.0
63691;BME280;49837;57.280;27.070;2023-08-01T00:58:24;99363.16;;;14.11;100.0
63691;BME280;49837;57.280;27.070;2023-08-01T00:59:24;99362.0;;;14.11;100.0
63691;BME280;49837;57.280;27.070;2023-08-01T01:00:25;99358.58;;;14.09;100.0
63691;BME280;49837;57.280;27.070;2023-08-01T01:01:25;99359.09;;;14.09;100.0
63691;BME280;49837;57.280;27.070;2023-08-01T01:02:25;99358.31;;;14.1;100.0
63691;BME280;49837;57.280;27.070;2023-08-01T01:03:26;99361.15;;;14.11;100.0
63691;BME280;49837;57.280;27.070;2023-08-01T01:04:27;99362.11;;;14.09;100.0
63691;BME280;49837;57.280;27.070;2023-08-01T01:05:35;99364.58;;;14.1;100.0
63691;BME280;49837;57.280;27.070;2023-08-01T01:06:40;99362.45;;;14.13;100.0
63691;BME280;49837;57.280;27.070;2023-08-01T01:07:29;99363.34;;;14.14;100.0
63691;BME280;49837;57.280;27.070;2023-08-01T01:08:29;99362.83;;;14.13;100.0
63691;BME280;49837;57.280;27.070;2023-08-01T01:09:30;99360.59;;;14.15;100.0
63691;BME280;49837;57.280;27.070;2023-08-01T01:10:30;99362.66;;;14.14;100.0
63691;BME280;49837;57.280;27.070;2023-08-01T01:11:30;99359.09;;;14.15;100.0
63691;BME280;49837;57.280;27.070;2023-08-01T01:12:31;99357.14;;;14.11;100.0
63691;BME280;49837;57.280;27.070;2023-08-01T01:13:32;99361.57;;;14.04;100.0
63691;BME280;49837;57.280;27.070;2023-08-01T01:14:32;99360.5;;;14.05;100.0
63691;BME280;49837;57.280;27.070;2023-08-01T01:15:32;99362.46;;;14.06;100.0
63691;BME280;49837;57.280;27.070;2023-08-01T01:16:33;99364.85;;;14.05;100.0
63691;BME280;49837;57.280;27.070;2023-08-01T01:17:34;99364.86;;;14.02;100.0
63691;BME280;49837;57.280;27.070;2023-08-01T01:18:34;99365.69;;;14.07;100.0
63691;BME280;49837;57.280;27.070;2023-08-01T01:19:34;99370.91;;;14.06;100.0
63691;BME280;49837;57.280;27.070;2023-08-01T01:20:35;99367.14;;;14.03;100.0
63691;BME280;49837;57.280;27.070;2023-08-01T01:21:37;99368.55;;;14.02;100.0
63691;BME280;49837;57.280;27.070;2023-08-01T01:22:36;99368.61;;;14.04;100.0
63691;BME280;49837;57.280;27.070;2023-08-01T01:23:37;99364.92;;;13.99;100.0
63691;BME280;49837;57.280;27.070;2023-08-01T01:24:37;99363.36;;;14.0;100.0
63691;BME280;49837;57.280;27.070;2023-08-01T01:25:39;99362.67;;;14.02;100.0
63691;BME280;49837;57.280;27.070;2023-08-01T01:26:40;99358.44;;;14.07;100.0
63691;BME280;49837;57.280;27.070;2023-08-01T01:27:38;99358.58;;;14.09;100.0
63691;BME280;49837;57.280;27.070;2023-08-01T01:28:39;99360.11;;;14.1;100.0
63691;BME280;49837;57.280;27.070;2023-08-01T01:29:40;99360.0;;;14.06;100.0
63691;BME280;49837;57.280;27.070;2023-08-01T01:30:41;99362.45;;;14.08;100.0
63691;BME280;49837;57.280;27.070;2023-08-01T01:31:41;99357.91;;;14.09;100.0
63691;BME280;49837;57.280;27.070;2023-08-01T01:32:41;99360.05;;;14.05;100.0
63691;BME280;49837;57.280;27.070;2023-08-01T01:33:42;99360.66;;;14.07;100.0
63691;BME280;49837;57.280;27.070;2023-08-01T01:34:44;99358.55;;;14.05;100.0
63691;BME280;49837;57.280;27.070;2023-08-01T01:35:43;99352.72;;;14.06;100.0
63691;BME280;49837;57.280;27.070;2023-08-01T01:36:43;99356.58;;;14.06;100.0
63691;BME280;49837;57.280;27.070;2023-08-01T01:37:44;99353.62;;;14.11;100.0
63691;BME280;49837;57.280;27.070;2023-08-01T01:38:45;99356.19;;;14.14;100.0
63691;BME280;49837;57.280;27.070;2023-08-01T01:39:46;99356.95;;;14.17;100.0
63691;BME280;49837;57.280;27.070;2023-08-01T01:40:46;99356.92;;;14.15;100.0
63691;BME280;49837;57.280;27.070;2023-08-01T01:41:47;99357.19;;;14.13;100.0
63691;BME280;49837;57.280;27.070;2023-08-01T01:42:47;99358.3;;;14.13;100.0
63691;BME280;49837;57.280;27.070;2023-08-01T01:43:48;99356.57;;;14.09;100.0
63691;BME280;49837;57.280;27.070;2023-08-01T01:44:49;99353.57;;;14.06;100.0
63691;BME280;49837;57.280;27.070;2023-08-01T01:45:49;99354.96;;;14.01;100.0
63691;BME280;49837;57.280;27.070;2023-08-01T01:46:50;99357.83;;;14.0;100.0
63691;BME280;49837;57.280;27.070;2023-08-01T01:47:50;99354.48;;;14.03;100.0
63691;BME280;49837;57.280;27.070;2023-08-01T01:48:50;99351.56;;;14.07;100.0
63691;BME280;49837;57.280;27.070;2023-08-01T01:49:51;99351.34;;;14.08;100.0
63691;BME280;49837;57.280;27.070;2023-08-01T01:50:52;99352.49;;;14.07;100.0
63691;BME280;49837;57.280;27.070;2023-08-01T01:51:52;99351.49;;;14.04;100.0
63691;BME280;49837;57.280;27.070;2023-08-01T01:52:53;99351.16;;;14.05;100.0
63691;BME280;49837;57.280;27.070;2023-08-01T01:53:54;99351.39;;;14.04;100.0
63691;BME280;49837;57.280;27.070;2023-08-01T01:54:54;99346.36;;;14.04;100.0
63691;BME280;49837;57.280;27.070;2023-08-01T01:55:55;99346.08;;;14.05;100.0
63691;BME280;49837;57.280;27.070;2023-08-01T01:56:55;99347.32;;;14.05;100.0
63691;BME280;49837;57.280;27.070;2023-08-01T01:57:56;99344.52;;;14.03;100.0
63691;BME280;49837;57.280;27.070;2023-08-01T01:58:56;99345.59;;;14.03;100.0
63691;BME280;49837;57.280;27.070;2023-08-01T01:59:56;99347.81;;;14.05;100.0
63691;BME280;49837;57.280;27.070;2023-08-01T02:00:57;99341.66;;;14.06;100.0
63691;BME280;49837;57.280;27.070;2023-08-01T02:01:57;99344.52;;;14.07;100.0
63691;BME280;49837;57.280;27.070;2023-08-01T02:02:58;99342.12;;;14.05;100.0
63691;BME280;49837;57.280;27.070;2023-08-01T02:03:58;99341.45;;;14.01;100.0
63691;BME280;49837;57.280;27.070;2023-08-01T02:04:59;99342.91;;;14.0;100.0
63691;BME280;49837;57.280;27.070;2023-08-01T02:05:59;99343.56;;;13.99;100.0
63691;BME280;49837;57.280;27.070;2023-08-01T02:07:00;99343.75;;;13.98;100.0
63691;BME280;49837;57.280;27.070;2023-08-01T02:08:00;99344.02;;;13.97;100.0
63691;BME280;49837;57.280;27.070;2023-08-01T02:09:01;99345.98;;;13.97;100.0
63691;BME280;49837;57.280;27.070;2023-08-01T02:10:01;99343.62;;;13.99;100.0
63691;BME280;49837;57.280;27.070;2023-08-01T02:11:01;99337.59;;;13.99;100.0
63691;BME280;49837;57.280;27.070;2023-08-01T02:12:02;99336.53;;;13.96;100.0
63691;BME280;49837;57.280;27.070;2023-08-01T02:13:02;99331.01;;;13.98;100.0
63691;BME280;49837;57.280;27.070;2023-08-01T02:14:03;99330.66;;;14.0;100.0
63691;BME280;49837;57.280;27.070;2023-08-01T02:15:04;99329.66;;;14.02;100.0
63691;BME280;49837;57.280;27.070;2023-08-01T02:16:04;99328.05;;;14.01;100.0
63691;BME280;49837;57.280;27.070;2023-08-01T02:17:05;99325.52;;;13.99;100.0
63691;BME280;49837;57.280;27.070;2023-08-01T02:18:05;99322.91;;;13.95;100.0
63691;BME280;49837;57.280;27.070;2023-08-01T02:19:06;99322.62;;;13.97;100.0
63691;BME280;49837;57.280;27.070;2023-08-01T02:20:07;99323.18;;;14.01;100.0
63691;BME280;49837;57.280;27.070;2023-08-01T02:21:07;99315.45;;;14.0;100.0
63691;BME280;49837;57.280;27.070;2023-08-01T02:22:07;99315.18;;;14.01;100.0
63691;BME280;49837;57.280;27.070;2023-08-01T02:23:07;99314.55;;;14.01;100.0
63691;BME280;49837;57.280;27.070;2023-08-01T02:24:08;99311.77;;;14.04;100.0
63691;BME280;49837;57.280;27.070;2023-08-01T02:25:09;99312.82;;;14.03;100.0
63691;BME280;49837;57.280;27.070;2023-08-01T02:26:09;99311.77;;;14.04;100.0
63691;BME280;49837;57.280;27.070;2023-08-01T02:27:10;99310.27;;;14.04;100.0
63691;BME280;49837;57.280;27.070;2023-08-01T02:28:10;99309.69;;;14.05;100.0
63691;BME280;49837;57.280;27.070;2023-08-01T02:29:11;99309.2;;;14.03;100.0
63691;BME280;49837;57.280;27.070;2023-08-01T02:30:12;99312.94;;;14.04;100.0
63691;BME280;49837;57.280;27.070;2023-08-01T02:31:12;99313.95;;;14.04;100.0
63691;BME280;49837;57.280;27.070;2023-08-01T02:32:12;99314.0;;;14.04;100.0
63691;BME280;49837;57.280;27.070;2023-08-01T02:33:13;99310.59;;;14.01;100.0
63691;BME280;49837;57.280;27.070;2023-08-01T02:34:13;99313.56;;;14.02;100.0
63691;BME280;49837;57.280;27.070;2023-08-01T02:35:14;99315.52;;;14.04;100.0
63691;BME280;49837;57.280;27.070;2023-08-01T02:36:14;99315.78;;;14.04;100.0
63691;BME280;49837;57.280;27.070;2023-08-01T02:37:14;99311.98;;;14.06;100.0
63691;BME280;49837;57.280;27.070;2023-08-01T02:38:15;99311.66;;;14.06;100.0
63691;BME280;49837;57.280;27.070;2023-08-01T02:39:15;99311.03;;;14.08;100.0
63691;BME280;49837;57.280;27.070;2023-08-01T02:40:16;99312.6;;;14.08;100.0
63691;BME280;49837;57.280;27.070;2023-08-01T02:41:16;99314.09;;;14.07;100.0
63691;BME280;49837;57.280;27.070;2023-08-01T02:42:17;99314.28;;;14.08;100.0
63691;BME280;49837;57.280;27.070;2023-08-01T02:43:17;99314.88;;;14.11;100.0
63691;BME280;49837;57.280;27.070;2023-08-01T02:44:18;99315.66;;;14.12;100.0
63691;BME280;49837;57.280;27.070;2023-08-01T02:45:18;99315.05;;;14.1;100.0
63691;BME280;49837;57.280;27.070;2023-08-01T02:46:18;99314.55;;;14.12;100.0
63691;BME280;49837;57.280;27.070;2023-08-01T02:47:19;99317.95;;;14.16;100.0
63691;BME280;49837;57.280;27.070;2023-08-01T02:48:19;99312.91;;;14.16;100.0
63691;BME280;49837;57.280;27.070;2023-08-01T02:49:20;99310.27;;;14.04;100.0
63691;BME280;49837;57.280;27.070;2023-08-01T02:50:20;99309.39;;;13.95;100.0
63691;BME280;49837;57.280;27.070;2023-08-01T02:51:21;99307.05;;;13.9;100.0
63691;BME280;49837;57.280;27.070;2023-08-01T02:52:21;99308.61;;;13.91;100.0
63691;BME280;49837;57.280;27.070;2023-08-01T02:53:22;99309.77;;;13.89;100.0
63691;BME280;49837;57.280;27.070;2023-08-01T02:54:22;99310.5;;;13.91;100.0
63691;BME280;49837;57.280;27.070;2023-08-01T02:55:23;99311.01;;;13.92;100.0
63691;BME280;49837;57.280;27.070;2023-08-01T02:56:23;99309.22;;;13.94;100.0
63691;BME280;49837;57.280;27.070;2023-08-01T02:57:24;99309.15;;;13.98;100.0
63691;BME280;49837;57.280;27.070;2023-08-01T02:58:24;99310.78;;;13.97;100.0
63691;BME280;49837;57.280;27.070;2023-08-01T02:59:25;99306.64;;;14.0;100.0
63691;BME280;49837;57.280;27.070;2023-08-01T03:00:25;99306.35;;;14.0;100.0
63691;BME280;49837;57.280;27.070;2023-08-01T03:01:25;99307.08;;;13.98;100.0
63691;BME280;49837;57.280;27.070;2023-08-01T03:02:26;99309.34;;;13.93;100.0
63691;BME280;49837;57.280;27.070;2023-08-01T03:03:26;99310.94;;;13.94;100.0
63691;BME280;49837;57.280;27.070;2023-08-01T03:04:27;99308.38;;;13.98;100.0
63691;BME280;49837;57.280;27.070;2023-08-01T03:05:27;99307.42;;;13.99;100.0
63691;BME280;49837;57.280;27.070;2023-08-01T03:06:27;99304.12;;;13.97;100.0
63691;BME280;49837;57.280;27.070;2023-08-01T03:07:28;99302.05;;;13.99;100.0
63691;BME280;49837;57.280;27.070;2023-08-01T03:08:28;99302.44;;;14.01;100.0
63691;BME280;49837;57.280;27.070;2023-08-01T03:09:29;99303.81;;;14.05;100.0
63691;BME280;49837;57.280;27.070;2023-08-01T03:10:29;99303.89;;;14.05;100.0
63691;BME280;49837;57.280;27.070;2023-08-01T03:11:36;99300.08;;;14.04;100.0
63691;BME280;49837;57.280;27.070;2023-08-01T03:12:34;99299.11;;;14.08;100.0
63691;BME280;49837;57.280;27.070;2023-08-01T03:13:34;99296.97;;;14.02;100.0
63691;BME280;49837;57.280;27.070;2023-08-01T03:14:34;99295.84;;;14.01;100.0
63691;BME280;49837;57.280;27.070;2023-08-01T03:15:35;99294.8;;;13.95;100.0
63691;BME280;49837;57.280;27.070;2023-08-01T03:16:35;99294.12;;;13.94;100.0
63691;BME280;49837;57.280;27.070;2023-08-01T03:17:36;99293.11;;;13.95;100.0
63691;BME280;49837;57.280;27.070;2023-08-01T03:18:36;99291.77;;;14.0;100.0
63691;BME280;49837;57.280;27.070;2023-08-01T03:19:37;99288.48;;;13.96;100.0
63691;BME280;49837;57.280;27.070;2023-08-01T03:20:37;99287.77;;;13.9;100.0
63691;BME280;49837;57.280;27.070;2023-08-01T03:21:38;99287.66;;;13.9;100.0
63691;BME280;49837;57.280;27.070;2023-08-01T03:22:39;99285.98;;;13.91;100.0
63691;BME280;49837;57.280;27.070;2023-08-01T03:23:39;99287.7;;;13.96;100.0
63691;BME280;49837;57.280;27.070;2023-08-01T03:24:39;99287.92;;;13.97;100.0
63691;BME280;49837;57.280;27.070;2023-08-01T03:25:40;99286.52;;;13.97;100.0
63691;BME280;49837;57.280;27.070;2023-08-01T03:26:40;99286.19;;;13.94;100.0
63691;BME280;49837;57.280;27.070;2023-08-01T03:27:40;99287.3;;;13.94;100.0
63691;BME280;49837;57.280;27.070;2023-08-01T03:28:41;99282.95;;;13.97;100.0
63691;BME280;49837;57.280;27.070;2023-08-01T03:29:41;99285.24;;;13.93;100.0
63691;BME280;49837;57.280;27.070;2023-08-01T03:30:42;99283.0;;;13.94;100.0
63691;BME280;49837;57.280;27.070;2023-08-01T03:31:42;99287.81;;;14.02;100.0
63691;BME280;49837;57.280;27.070;2023-08-01T03:32:43;99286.31;;;13.94;100.0
63691;BME280;49837;57.280;27.070;2023-08-01T03:33:43;99287.47;;;13.94;100.0
63691;BME280;49837;57.280;27.070;2023-08-01T03:34:44;99285.44;;;14.05;100.0
63691;BME280;49837;57.280;27.070;2023-08-01T03:35:45;99284.75;;;14.09;100.0
63691;BME280;49837;57.280;27.070;2023-08-01T03:36:45;99285.11;;;14.0;100.0
63691;BME280;49837;57.280;27.070;2023-08-01T03:37:46;99284.23;;;14.03;100.0
63691;BME280;49837;57.280;27.070;2023-08-01T03:38:46;99284.87;;;14.13;100.0
63691;BME280;49837;57.280;27.070;2023-08-01T03:39:46;99285.59;;;14.11;100.0
63691;BME280;49837;57.280;27.070;2023-08-01T03:40:47;99286.92;;;14.17;100.0
63691;BME280;49837;57.280;27.070;2023-08-01T03:41:47;99284.86;;;14.3;100.0
63691;BME280;49837;57.280;27.070;2023-08-01T03:42:48;99288.2;;;14.34;100.0
63691;BME280;49837;57.280;27.070;2023-08-01T03:43:48;99289.94;;;14.33;100.0
63691;BME280;49837;57.280;27.070;2023-08-01T03:44:49;99291.6;;;14.39;100.0
63691;BME280;49837;57.280;27.070;2023-08-01T03:45:51;99287.66;;;14.45;100.0
63691;BME280;49837;57.280;27.070;2023-08-01T03:46:51;99293.45;;;14.48;100.0
63691;BME280;49837;57.280;27.070;2023-08-01T03:47:51;99289.2;;;14.49;100.0
63691;BME280;49837;57.280;27.070;2023-08-01T03:48:52;99291.84;;;14.49;100.0
63691;BME280;49837;57.280;27.070;2023-08-01T03:49:52;99291.27;;;14.49;100.0
63691;BME280;49837;57.280;27.070;2023-08-01T03:50:53;99293.27;;;14.51;100.0
63691;BME280;49837;57.280;27.070;2023-08-01T03:51:53;99296.5;;;14.54;100.0
63691;BME280;49837;57.280;27.070;2023-08-01T03:52:54;99297.78;;;14.44;100.0
63691;BME280;49837;57.280;27.070;2023-08-01T03:53:54;99297.8;;;14.35;100.0
63691;BME280;49837;57.280;27.070;2023-08-01T03:54:59;99297.03;;;14.35;100.0
63691;BME280;49837;57.280;27.070;2023-08-01T03:55:59;99295.91;;;14.37;100.0
63691;BME280;49837;57.280;27.070;2023-08-01T03:57:00;99294.92;;;14.41;100.0
63691;BME280;49837;57.280;27.070;2023-08-01T03:58:00;99291.02;;;14.39;100.0
63691;BME280;49837;57.280;27.070;2023-08-01T03:59:01;99286.84;;;14.36;100.0
63691;BME280;49837;57.280;27.070;2023-08-01T04:00:02;99289.63;;;14.37;100.0
63691;BME280;49837;57.280;27.070;2023-08-01T04:01:02;99280.91;;;14.38;100.0
63691;BME280;49837;57.280;27.070;2023-08-01T04:02:03;99281.48;;;14.34;100.0
63691;BME280;49837;57.280;27.070;2023-08-01T04:03:03;99281.27;;;14.34;100.0
63691;BME280;49837;57.280;27.070;2023-08-01T04:04:04;99275.28;;;14.32;100.0
63691;BME280;49837;57.280;27.070;2023-08-01T04:05:04;99275.66;;;14.34;100.0
63691;BME280;49837;57.280;27.070;2023-08-01T04:06:04;99278.76;;;14.33;100.0
63691;BME280;49837;57.280;27.070;2023-08-01T04:07:05;99273.83;;;14.31;100.0
63691;BME280;49837;57.280;27.070;2023-08-01T04:08:05;99270.48;;;14.31;100.0
63691;BME280;49837;57.280;27.070;2023-08-01T04:09:06;99274.13;;;14.27;100.0
63691;BME280;49837;57.280;27.070;2023-08-01T04:10:07;99270.73;;;14.27;100.0
63691;BME280;49837;57.280;27.070;2023-08-01T04:11:07;99264.94;;;14.31;100.0
63691;BME280;49837;57.280;27.070;2023-08-01T04:12:08;99263.88;;;14.32;100.0
63691;BME280;49837;57.280;27.070;2023-08-01T04:13:08;99264.56;;;14.31;100.0
63691;BME280;49837;57.280;27.070;2023-08-01T04:14:08;99265.52;;;14.4;100.0
63691;BME280;49837;57.280;27.070;2023-08-01T04:15:09;99261.94;;;14.41;100.0
63691;BME280;49837;57.280;27.070;2023-08-01T04:16:09;99258.47;;;14.53;100.0
63691;BME280;49837;57.280;27.070;2023-08-01T04:17:09;99262.53;;;14.57;100.0
63691;BME280;49837;57.280;27.070;2023-08-01T04:18:10;99258.98;;;14.64;100.0
63691;BME280;49837;57.280;27.070;2023-08-01T04:19:10;99259.64;;;14.73;100.0
63691;BME280;49837;57.280;27.070;2023-08-01T04:20:11;99257.75;;;14.79;100.0
63691;BME280;49837;57.280;27.070;2023-08-01T04:21:13;99261.25;;;14.73;100.0
63691;BME280;49837;57.280;27.070;2023-08-01T04:22:12;99261.98;;;14.68;100.0
63691;BME280;49837;57.280;27.070;2023-08-01T04:23:12;99262.05;;;14.66;100.0
63691;BME280;49837;57.280;27.070;2023-08-01T04:24:13;99262.46;;;14.78;100.0
63691;BME280;49837;57.280;27.070;2023-08-01T04:25:13;99257.23;;;14.83;100.0
63691;BME280;49837;57.280;27.070;2023-08-01T04:26:13;99263.48;;;14.85;100.0
63691;BME280;49837;57.280;27.070;2023-08-01T04:27:14;99260.73;;;14.84;100.0
63691;BME280;49837;57.280;27.070;2023-08-01T04:28:14;99260.28;;;14.79;100.0
63691;BME280;49837;57.280;27.070;2023-08-01T04:29:15;99261.66;;;14.73;100.0
63691;BME280;49837;57.280;27.070;2023-08-01T04:30:15;99258.48;;;14.87;100.0
63691;BME280;49837;57.280;27.070;2023-08-01T04:31:17;99261.97;;;15.03;100.0
63691;BME280;49837;57.280;27.070;2023-08-01T04:32:16;99262.48;;;15.08;100.0
63691;BME280;49837;57.280;27.070;2023-08-01T04:33:17;99262.44;;;15.13;100.0
63691;BME280;49837;57.280;27.070;2023-08-01T04:34:17;99261.58;;;15.09;100.0
63691;BME280;49837;57.280;27.070;2023-08-01T04:35:18;99263.84;;;15.16;100.0
63691;BME280;49837;57.280;27.070;2023-08-01T04:36:18;99260.51;;;15.11;100.0
63691;BME280;49837;57.280;27.070;2023-08-01T04:37:19;99267.59;;;15.23;100.0
63691;BME280;49837;57.280;27.070;2023-08-01T04:38:19;99264.53;;;15.12;100.0
63691;BME280;49837;57.280;27.070;2023-08-01T04:39:20;99261.12;;;15.05;100.0
63691;BME280;49837;57.280;27.070;2023-08-01T04:40:20;99261.17;;;15.18;100.0
63691;BME280;49837;57.280;27.070;2023-08-01T04:41:20;99258.98;;;15.22;100.0
63691;BME280;49837;57.280;27.070;2023-08-01T04:42:21;99259.56;;;15.24;100.0
63691;BME280;49837;57.280;27.070;2023-08-01T04:43:21;99258.7;;;15.1;100.0
63691;BME280;49837;57.280;27.070;2023-08-01T04:44:22;99261.09;;;15.16;100.0
63691;BME280;49837;57.280;27.070;2023-08-01T04:45:22;99257.45;;;15.16;100.0
63691;BME280;49837;57.280;27.070;2023-08-01T04:46:23;99251.66;;;15.16;100.0
63691;BME280;49837;57.280;27.070;2023-08-01T04:47:23;99251.72;;;15.31;100.0
63691;BME280;49837;57.280;27.070;2023-08-01T04:48:24;99249.4;;;15.35;100.0
63691;BME280;49837;57.280;27.070;2023-08-01T04:49:24;99250.75;;;15.34;100.0
63691;BME280;49837;57.280;27.070;2023-08-01T04:50:25;99255.5;;;15.41;100.0
63691;BME280;49837;57.280;27.070;2023-08-01T04:51:25;99256.44;;;15.43;100.0
63691;BME280;49837;57.280;27.070;2023-08-01T04:52:26;99258.12;;;15.48;100.0
63691;BME280;49837;57.280;27.070;2023-08-01T04:53:26;99255.75;;;15.46;100.0
63691;BME280;49837;57.280;27.070;2023-08-01T04:54:27;99257.14;;;15.34;100.0
63691;BME280;49837;57.280;27.070;2023-08-01T04:55:27;99257.35;;;15.36;100.0
63691;BME280;49837;57.280;27.070;2023-08-01T04:56:28;99254.98;;;15.37;100.0
63691;BME280;49837;57.280;27.070;2023-08-01T04:57:28;99253.88;;;15.33;100.0
63691;BME280;49837;57.280;27.070;2023-08-01T04:58:28;99246.07;;;15.18;100.0
63691;BME280;49837;57.280;27.070;2023-08-01T04:59:29;99246.16;;;15.2;100.0
63691;BME280;49837;57.280;27.070;2023-08-01T05:00:30;99247.93;;;15.14;100.0
63691;BME280;49837;57.280;27.070;2023-08-01T05:01:30;99247.95;;;15.26;100.0
63691;BME280;49837;57.280;27.070;2023-08-01T05:02:30;99249.54;;;15.26;100.0
63691;BME280;49837;57.280;27.070;2023-08-01T05:03:31;99249.78;;;15.23;100.0
63691;BME280;49837;57.280;27.070;2023-08-01T05:04:31;99252.47;;;15.23;100.0
63691;BME280;49837;57.280;27.070;2023-08-01T05:05:31;99247.5;;;15.21;100.0
63691;BME280;49837;57.280;27.070;2023-08-01T05:06:32;99252.39;;;15.3;100.0
63691;BME280;49837;57.280;27.070;2023-08-01T05:07:32;99254.48;;;15.36;100.0
63691;BME280;49837;57.280;27.070;2023-08-01T05:08:33;99257.06;;;15.44;100.0
63691;BME280;49837;57.280;27.070;2023-08-01T05:09:33;99260.64;;;15.56;100.0
63691;BME280;49837;57.280;27.070;2023-08-01T05:10:34;99259.62;;;15.59;100.0
63691;BME280;49837;57.280;27.070;2023-08-01T05:11:34;99259.38;;;15.47;100.0
63691;BME280;49837;57.280;27.070;2023-08-01T05:12:35;99262.81;;;15.52;100.0
63691;BME280;49837;57.280;27.070;2023-08-01T05:13:35;99260.78;;;15.53;100.0
63691;BME280;49837;57.280;27.070;2023-08-01T05:14:35;99261.94;;;15.61;100.0
63691;BME280;49837;57.280;27.070;2023-08-01T05:15:36;99263.7;;;15.63;100.0
63691;BME280;49837;57.280;27.070;2023-08-01T05:16:36;99263.09;;;15.64;100.0
63691;BME280;49837;57.280;27.070;2023-08-01T05:17:37;99262.01;;;15.54;100.0